Time;durP1;ratioP1;P1;durP2;ratioP2;P2;SDS_P1;SDS_P2;PMS_P1;PMS_P2;Temp;Humidity;BMP_temperature;BMP_pressure;BME280_temperature;BME280_humidity;BME280_pressure;Samples;Min_cycle;Max_cycle;Signal;HPM_P1;HPM_P2
2022/09/07 00:01:04;;;;;;;7.43;1.53;;;22.70;79.60;;;;;;5110145;28;20488;-65
2022/09/07 00:03:32;;;;;;;3.23;1.30;;;22.80;78.90;;;;;;5110245;28;20451;-65
2022/09/07 00:05:59;;;;;;;2.40;1.00;;;22.90;78.50;;;;;;5110194;28;20447;-66
2022/09/07 00:08:27;;;;;;;2.40;1.20;;;22.90;79.30;;;;;;5110006;28;20471;-65
2022/09/07 00:10:56;;;;;;;3.60;1.40;;;23.00;78.30;;;;;;5110491;28;20817;-65
2022/09/07 00:13:24;;;;;;;6.40;1.80;;;23.10;77.80;;;;;;5109437;28;20454;-66
2022/09/07 00:15:51;;;;;;;3.90;1.27;;;23.10;77.50;;;;;;5109922;28;20538;-66
2022/09/07 00:18:18;;;;;;;2.70;1.17;;;23.30;77.30;;;;;;5109840;28;20566;-66
2022/09/07 00:20:46;;;;;;;2.77;1.20;;;23.40;76.70;;;;;;5110309;28;20502;-66
2022/09/07 00:23:13;;;;;;;4.83;1.63;;;23.50;76.10;;;;;;5110075;28;20541;-67
2022/09/07 00:25:41;;;;;;;2.57;1.40;;;23.50;76.00;;;;;;5109675;28;20534;-67
2022/09/07 00:28:08;;;;;;;2.10;1.37;;;23.60;75.40;;;;;;5105953;28;20514;-68
2022/09/07 00:30:40;;;;;;;2.87;1.33;;;23.70;75.30;;;;;;5094288;28;20447;-67
2022/09/07 00:33:07;;;;;;;2.97;1.33;;;23.80;74.70;;;;;;5096420;28;20440;-66
2022/09/07 00:35:39;;;;;;;2.60;1.50;;;23.80;72.30;;;;;;5096229;28;20475;-66
2022/09/07 00:38:08;;;;;;;3.03;1.03;;;23.90;73.20;;;;;;5096014;28;20574;-66
2022/09/07 00:40:35;;;;;;;3.73;1.30;;;23.90;72.50;;;;;;5095502;28;20456;-66
2022/09/07 00:43:03;;;;;;;2.17;1.30;;;23.90;71.30;;;;;;5095689;28;20452;-67
2022/09/07 00:45:30;;;;;;;2.67;1.60;;;23.90;71.40;;;;;;5095600;28;20443;-67
2022/09/07 00:48:02;;;;;;;2.30;1.43;;;24.00;71.80;;;;;;5095173;28;20460;-67
2022/09/07 00:50:33;;;;;;;1.87;1.40;;;24.00;71.70;;;;;;5095782;28;20474;-67
2022/09/07 00:53:04;;;;;;;1.47;1.00;;;24.00;71.30;;;;;;5095335;28;20427;-67
2022/09/07 00:55:34;;;;;;;1.67;1.10;;;24.00;71.20;;;;;;5095599;28;20540;-68
2022/09/07 00:58:02;;;;;;;4.80;1.50;;;24.00;72.10;;;;;;5095593;28;20488;-68
2022/09/07 01:00:29;;;;;;;2.40;1.40;;;24.00;72.10;;;;;;5095544;28;20547;-69
2022/09/07 01:02:59;;;;;;;3.43;1.53;;;24.00;72.70;;;;;;5095291;28;20444;-68
2022/09/07 01:05:30;;;;;;;5.53;1.43;;;24.00;73.50;;;;;;5095071;28;20444;-67
2022/09/07 01:07:58;;;;;;;2.73;1.30;;;24.10;73.60;;;;;;5094499;28;20456;-67
2022/09/07 01:10:29;;;;;;;3.80;1.57;;;24.00;71.90;;;;;;5094909;28;20446;-67
2022/09/07 01:12:57;;;;;;;5.50;1.80;;;24.00;72.10;;;;;;5095208;28;20435;-67
2022/09/07 01:15:32;;;;;;;2.83;1.50;;;24.00;73.20;;;;;;5095157;28;20460;-68
2022/09/07 01:18:06;;;;;;;3.37;1.77;;;24.00;73.80;;;;;;5095139;28;20483;-67
2022/09/07 01:20:54;;;;;;;3.13;1.47;;;24.00;72.50;;;;;;5094913;28;20429;-67
2022/09/07 01:23:56;;;;;;;5.03;1.77;;;24.00;72.90;;;;;;5094397;28;20436;-67
2022/09/07 01:26:53;;;;;;;3.93;1.40;;;24.00;73.20;;;;;;5094755;28;20424;-67
2022/09/07 01:29:27;;;;;;;2.10;1.67;;;24.00;73.60;;;;;;5091870;28;20476;-67
2022/09/07 01:32:05;;;;;;;3.20;1.83;;;24.00;73.90;;;;;;5094708;28;20427;-68
2022/09/07 01:34:32;;;;;;;2.83;2.20;;;24.00;74.00;;;;;;5094660;28;20815;-68
2022/09/07 01:37:10;;;;;;;2.20;1.70;;;23.90;73.80;;;;;;5094711;28;20448;-68
2022/09/07 01:39:46;;;;;;;3.03;2.20;;;23.90;74.30;;;;;;5093674;28;20915;-68
2022/09/07 01:42:16;;;;;;;2.77;2.20;;;23.80;74.20;;;;;;5093602;28;20789;-68
2022/09/07 01:44:50;;;;;;;5.47;2.50;;;23.80;74.50;;;;;;5094144;28;20438;-68
2022/09/07 01:47:21;;;;;;;2.50;2.07;;;23.80;74.60;;;;;;5094513;28;20424;-68
2022/09/07 01:49:53;;;;;;;4.27;2.10;;;23.80;74.90;;;;;;5094341;28;20432;-68
2022/09/07 01:52:26;;;;;;;4.87;2.33;;;23.80;75.20;;;;;;5094519;28;20437;-68
2022/09/07 01:55:00;;;;;;;4.60;2.80;;;23.80;75.20;;;;;;5094345;28;20926;-69
2022/09/07 01:57:33;;;;;;;2.67;2.47;;;23.80;75.50;;;;;;5094165;28;20476;-68
2022/09/07 02:00:06;;;;;;;2.40;2.07;;;23.80;75.90;;;;;;5093672;28;20883;-68
2022/09/07 02:02:40;;;;;;;5.37;2.47;;;23.80;76.00;;;;;;5094117;28;20434;-68
2022/09/07 02:05:10;;;;;;;3.40;1.70;;;23.70;76.00;;;;;;5094203;28;20463;-69
2022/09/07 02:07:44;;;;;;;2.03;1.80;;;23.70;75.90;;;;;;5094272;28;20511;-69
2022/09/07 02:10:14;;;;;;;2.10;1.60;;;23.70;76.10;;;;;;5094232;28;20535;-69
2022/09/07 02:12:46;;;;;;;3.97;1.80;;;23.70;76.30;;;;;;5094182;28;20823;-69
2022/09/07 02:15:19;;;;;;;3.77;1.67;;;23.70;76.60;;;;;;5093890;28;20439;-68
2022/09/07 02:17:51;;;;;;;3.80;1.60;;;23.70;76.60;;;;;;5093784;28;20531;-68
2022/09/07 02:20:21;;;;;;;1.90;1.47;;;23.60;76.00;;;;;;5094378;28;20471;-68
2022/09/07 02:22:51;;;;;;;1.80;1.70;;;23.60;76.20;;;;;;5094063;28;20482;-68
2022/09/07 02:25:22;;;;;;;2.20;1.70;;;23.70;75.80;;;;;;5093611;28;20436;-68
2022/09/07 02:27:53;;;;;;;2.57;1.87;;;23.60;75.70;;;;;;5093576;28;20486;-69
2022/09/07 02:30:22;;;;;;;2.97;1.47;;;23.60;76.40;;;;;;5093475;28;20870;-67
2022/09/07 02:32:49;;;;;;;2.60;1.77;;;23.60;76.30;;;;;;5094082;28;20463;-68
2022/09/07 02:35:16;;;;;;;1.87;1.43;;;23.60;76.10;;;;;;5093074;28;20582;-68
2022/09/07 02:37:45;;;;;;;1.93;1.50;;;23.50;76.10;;;;;;5093116;28;20578;-68
2022/09/07 02:40:13;;;;;;;1.83;1.73;;;23.50;76.20;;;;;;5093115;28;20452;-68
2022/09/07 02:42:41;;;;;;;2.77;1.60;;;23.50;76.30;;;;;;5093684;28;20455;-68
2022/09/07 02:45:11;;;;;;;2.90;1.80;;;23.40;75.90;;;;;;5093234;28;20440;-68
2022/09/07 02:47:51;;;;;;;3.30;1.73;;;23.40;76.00;;;;;;5093025;28;21027;-68
2022/09/07 02:50:48;;;;;;;2.87;1.60;;;23.40;76.00;;;;;;5094737;28;20511;-68
2022/09/07 02:53:47;;;;;;;3.47;1.93;;;23.40;76.20;;;;;;5078937;28;20970;-68
2022/09/07 02:56:28;;;;;;;3.27;1.87;;;23.40;76.20;;;;;;5091443;28;20546;-68
2022/09/07 02:59:01;;;;;;;4.90;2.50;;;23.30;76.90;;;;;;5093126;28;20498;-68
2022/09/07 03:01:40;;;;;;;3.10;2.80;;;23.30;75.90;;;;;;5092908;28;20443;-69
2022/09/07 03:04:15;;;;;;;5.50;3.20;;;23.30;76.50;;;;;;5092727;28;20493;-68
2022/09/07 03:06:46;;;;;;;4.30;3.07;;;23.30;77.10;;;;;;5092911;28;20519;-68
2022/09/07 03:09:19;;;;;;;6.27;3.30;;;23.20;77.30;;;;;;5093471;28;20474;-68
2022/09/07 03:11:47;;;;;;;4.83;3.30;;;23.20;77.40;;;;;;5092436;28;20908;-68
2022/09/07 03:14:16;;;;;;;4.13;2.70;;;23.10;77.80;;;;;;5092555;28;20452;-68
2022/09/07 03:16:44;;;;;;;5.53;3.40;;;23.10;78.20;;;;;;5092607;28;21009;-68
2022/09/07 03:19:12;;;;;;;3.00;2.70;;;23.00;78.40;;;;;;5092431;28;20931;-68
2022/09/07 03:21:40;;;;;;;6.97;3.47;;;23.00;78.60;;;;;;5093093;28;20462;-68
2022/09/07 03:24:08;;;;;;;3.73;3.43;;;22.90;78.30;;;;;;5093944;28;20899;-68
2022/09/07 03:26:38;;;;;;;7.57;3.97;;;22.90;78.20;;;;;;5092434;28;20531;-68
2022/09/07 03:29:05;;;;;;;8.30;4.67;;;22.90;78.70;;;;;;5092735;28;20451;-68
2022/09/07 03:31:32;;;;;;;7.17;5.50;;;22.80;79.00;;;;;;5092902;28;20444;-68
2022/09/07 03:33:59;;;;;;;7.87;6.83;;;22.80;79.50;;;;;;5092470;28;20538;-68
2022/09/07 03:36:28;;;;;;;8.50;7.80;;;22.70;79.60;;;;;;5092857;28;20450;-68
2022/09/07 03:38:55;;;;;;;8.77;7.90;;;22.60;80.60;;;;;;5092262;28;20991;-68
2022/09/07 03:41:22;;;;;;;8.63;7.80;;;22.50;81.10;;;;;;5092726;28;20448;-68
2022/09/07 03:43:49;;;;;;;9.30;8.30;;;22.50;81.50;;;;;;5092696;28;20830;-68
2022/09/07 03:46:19;;;;;;;8.13;7.00;;;22.40;81.70;;;;;;5093244;28;20539;-68
2022/09/07 03:48:47;;;;;;;10.60;8.57;;;22.40;81.30;;;;;;5092487;28;20464;-68
2022/09/07 03:51:15;;;;;;;10.87;9.87;;;22.40;80.70;;;;;;5092262;28;20455;-68
2022/09/07 03:53:46;;;;;;;9.93;9.07;;;22.40;81.40;;;;;;5092356;28;20534;-68
2022/09/07 03:56:14;;;;;;;12.00;10.77;;;22.40;81.00;;;;;;5092396;28;20523;-68
2022/09/07 03:58:42;;;;;;;12.83;10.93;;;22.40;81.50;;;;;;5091943;28;20999;-68
2022/09/07 04:01:11;;;;;;;13.50;12.10;;;22.40;81.70;;;;;;5092853;28;20451;-68
2022/09/07 04:03:39;;;;;;;12.57;11.37;;;22.40;82.00;;;;;;5093714;28;20431;-68
2022/09/07 04:06:06;;;;;;;11.40;10.30;;;22.40;82.00;;;;;;5096920;28;20447;-68
2022/09/07 04:08:37;;;;;;;12.97;10.07;;;22.30;82.20;;;;;;5096687;28;20460;-68
2022/09/07 04:11:07;;;;;;;10.70;9.80;;;22.30;82.70;;;;;;5097029;28;20997;-68
2022/09/07 04:13:36;;;;;;;10.67;9.67;;;22.20;83.20;;;;;;5096735;28;20538;-68
2022/09/07 04:16:10;;;;;;;11.17;9.20;;;22.10;83.60;;;;;;5096624;28;20470;-67
2022/09/07 04:18:37;;;;;;;9.10;8.20;;;21.90;83.70;;;;;;5096507;28;20494;-67
2022/09/07 04:21:04;;;;;;;7.50;6.80;;;22.00;84.00;;;;;;5096290;28;20949;-67
2022/09/07 04:23:31;;;;;;;7.47;6.87;;;21.90;83.90;;;;;;5096178;28;20546;-68
2022/09/07 04:25:58;;;;;;;8.93;6.17;;;21.90;84.00;;;;;;5096407;28;20914;-68
2022/09/07 04:28:26;;;;;;;6.03;5.20;;;21.90;84.20;;;;;;5096015;28;20531;-68
2022/09/07 04:30:53;;;;;;;6.23;4.33;;;21.80;84.10;;;;;;5096387;28;20444;-68
2022/09/07 04:33:20;;;;;;;4.90;4.50;;;21.90;84.40;;;;;;5096403;28;20450;-67
2022/09/07 04:35:47;;;;;;;5.73;3.90;;;21.80;84.20;;;;;;5095983;28;21019;-67
2022/09/07 04:38:16;;;;;;;4.43;3.90;;;21.80;83.90;;;;;;5096005;28;20488;-67
2022/09/07 04:40:43;;;;;;;6.40;4.10;;;21.80;84.10;;;;;;5096202;28;20823;-67
2022/09/07 04:43:11;;;;;;;6.37;4.37;;;21.80;83.50;;;;;;5095952;28;20971;-67
2022/09/07 04:45:40;;;;;;;4.03;3.73;;;21.80;83.30;;;;;;5095743;28;20944;-67
2022/09/07 04:48:07;;;;;;;4.53;4.10;;;21.80;83.50;;;;;;5095975;28;20503;-67
2022/09/07 04:50:34;;;;;;;7.63;4.93;;;21.80;84.30;;;;;;5096006;28;20451;-67
2022/09/07 04:53:01;;;;;;;5.97;3.83;;;21.70;84.40;;;;;;5096262;28;20458;-67
2022/09/07 04:55:28;;;;;;;4.33;3.93;;;21.70;84.50;;;;;;5095766;28;20906;-67
2022/09/07 04:57:54;;;;;;;4.60;4.10;;;21.70;84.30;;;;;;5095827;28;20546;-67
2022/09/07 05:00:22;;;;;;;4.20;3.60;;;21.70;84.20;;;;;;5095805;28;20444;-67
2022/09/07 05:02:50;;;;;;;8.97;4.53;;;21.70;84.50;;;;;;5096060;28;20497;-67
2022/09/07 05:05:17;;;;;;;5.27;3.73;;;21.70;84.60;;;;;;5096063;28;20440;-67
2022/09/07 05:07:43;;;;;;;6.10;3.97;;;21.70;84.60;;;;;;5095493;28;20470;-67
2022/09/07 05:10:10;;;;;;;4.60;3.70;;;21.70;84.50;;;;;;5095651;28;20432;-67
2022/09/07 05:12:37;;;;;;;7.50;3.67;;;21.70;84.50;;;;;;5095346;28;20444;-67
2022/09/07 05:15:05;;;;;;;3.57;3.27;;;21.70;84.40;;;;;;5095700;28;20430;-67
2022/09/07 05:17:32;;;;;;;3.93;3.43;;;21.70;84.20;;;;;;5095086;28;20444;-68
2022/09/07 05:20:00;;;;;;;3.80;3.23;;;21.80;84.30;;;;;;5096818;28;20549;-68
2022/09/07 05:22:27;;;;;;;6.93;3.43;;;21.70;83.80;;;;;;5096650;28;20531;-68
2022/09/07 05:24:54;;;;;;;3.70;3.23;;;21.70;83.60;;;;;;5095730;28;20547;-68
2022/09/07 05:27:21;;;;;;;5.83;3.50;;;21.70;83.10;;;;;;5095660;28;20546;-68
2022/09/07 05:29:48;;;;;;;4.53;3.57;;;21.80;83.00;;;;;;5095546;28;20444;-68
2022/09/07 05:32:14;;;;;;;3.67;3.20;;;21.80;82.90;;;;;;5095236;28;21035;-68
2022/09/07 05:34:41;;;;;;;3.47;3.03;;;21.80;82.90;;;;;;5095440;28;20474;-68
2022/09/07 05:37:10;;;;;;;5.40;3.67;;;21.90;83.00;;;;;;5095128;28;20939;-68
2022/09/07 05:39:37;;;;;;;8.67;3.47;;;21.90;83.40;;;;;;5095139;28;20510;-68
2022/09/07 05:42:04;;;;;;;4.57;3.87;;;22.00;83.60;;;;;;5095140;28;20464;-68
2022/09/07 05:44:31;;;;;;;4.40;2.70;;;22.00;83.60;;;;;;5094752;28;20456;-68
2022/09/07 05:46:58;;;;;;;4.80;3.33;;;22.00;83.60;;;;;;5095103;28;20530;-68
2022/09/07 05:49:24;;;;;;;4.33;3.50;;;22.00;83.60;;;;;;5094978;28;20560;-68
2022/09/07 05:51:51;;;;;;;3.83;3.33;;;22.10;84.10;;;;;;5094729;28;20447;-68
2022/09/07 05:54:19;;;;;;;5.30;3.17;;;22.10;84.10;;;;;;5094948;28;20440;-68
2022/09/07 05:56:46;;;;;;;4.27;3.30;;;22.10;84.00;;;;;;5095416;28;20533;-68
2022/09/07 05:59:13;;;;;;;4.03;3.60;;;22.20;84.00;;;;;;5094249;28;20484;-68
2022/09/07 06:01:40;;;;;;;3.63;3.33;;;22.20;84.00;;;;;;5094606;28;20467;-68
2022/09/07 06:04:07;;;;;;;4.50;3.30;;;22.20;83.50;;;;;;5094598;28;20526;-68
2022/09/07 06:06:37;;;;;;;4.07;3.70;;;22.30;83.20;;;;;;5094551;28;20497;-68
2022/09/07 06:09:04;;;;;;;4.90;4.40;;;22.30;83.10;;;;;;5094434;28;20467;-68
2022/09/07 06:11:32;;;;;;;3.70;3.40;;;22.30;83.20;;;;;;5094292;28;20542;-68
2022/09/07 06:13:59;;;;;;;5.07;4.07;;;22.30;83.40;;;;;;5095274;28;20527;-68
2022/09/07 06:16:26;;;;;;;4.63;4.23;;;22.30;83.50;;;;;;5095119;28;20903;-68
2022/09/07 06:18:53;;;;;;;3.90;3.50;;;22.30;83.70;;;;;;5094516;28;20550;-68
2022/09/07 06:21:21;;;;;;;5.00;4.20;;;22.30;83.70;;;;;;5095318;28;20448;-68
2022/09/07 06:23:49;;;;;;;6.00;4.07;;;22.30;83.70;;;;;;5094769;28;20424;-67
2022/09/07 06:26:18;;;;;;;4.23;3.70;;;22.30;83.80;;;;;;5093487;28;20539;-68
2022/09/07 06:28:48;;;;;;;3.80;3.50;;;22.40;84.80;;;;;;5093880;28;20476;-68
2022/09/07 06:31:17;;;;;;;6.43;3.53;;;22.50;84.40;;;;;;5094279;28;20439;-68
2022/09/07 06:33:44;;;;;;;4.23;3.40;;;22.60;84.60;;;;;;5093881;28;21001;-68
2022/09/07 06:36:13;;;;;;;4.53;3.50;;;22.70;85.70;;;;;;5094006;28;20451;-68
2022/09/07 06:38:41;;;;;;;4.60;3.33;;;22.80;85.00;;;;;;5093639;28;20476;-68
2022/09/07 06:41:11;;;;;;;4.37;3.60;;;22.90;84.20;;;;;;5093977;28;20444;-68
2022/09/07 06:43:38;;;;;;;7.70;3.70;;;22.90;83.70;;;;;;5093828;28;20964;-68
2022/09/07 06:46:07;;;;;;;7.53;3.97;;;23.00;83.80;;;;;;5093887;28;20446;-68
2022/09/07 06:48:34;;;;;;;5.57;4.10;;;23.00;84.50;;;;;;5093529;28;20475;-68
2022/09/07 06:51:03;;;;;;;4.43;3.03;;;23.10;84.90;;;;;;5093884;28;20448;-68
2022/09/07 06:53:32;;;;;;;3.60;2.87;;;23.10;84.50;;;;;;5093800;28;20539;-68
2022/09/07 06:55:59;;;;;;;5.13;3.60;;;23.10;83.80;;;;;;5093510;28;20528;-68
2022/09/07 06:58:27;;;;;;;4.57;3.37;;;23.10;83.80;;;;;;5093772;28;20471;-68
2022/09/07 07:00:55;;;;;;;5.77;3.93;;;23.10;83.80;;;;;;5093754;28;20515;-68
2022/09/07 07:03:23;;;;;;;5.17;4.17;;;23.10;83.80;;;;;;5093806;28;20455;-68
2022/09/07 07:05:52;;;;;;;4.97;4.13;;;23.10;83.50;;;;;;5093751;28;20462;-68
2022/09/07 07:08:19;;;;;;;6.60;4.17;;;23.10;83.10;;;;;;5093612;28;20463;-68
2022/09/07 07:10:46;;;;;;;4.53;3.70;;;23.10;83.30;;;;;;5093342;28;20490;-68
2022/09/07 07:13:13;;;;;;;6.00;4.80;;;23.20;83.30;;;;;;5094203;28;20519;-68
2022/09/07 07:15:40;;;;;;;8.00;4.33;;;23.20;83.10;;;;;;5093758;28;20792;-68
2022/09/07 07:18:07;;;;;;;8.00;3.90;;;23.20;83.20;;;;;;5093501;28;20475;-68
2022/09/07 07:20:36;;;;;;;5.00;2.53;;;23.20;83.70;;;;;;5093531;28;20476;-68
2022/09/07 07:23:04;;;;;;;5.30;2.00;;;23.10;83.50;;;;;;5093513;28;20479;-68
2022/09/07 07:25:33;;;;;;;7.77;2.53;;;22.90;82.20;;;;;;5093451;28;20484;-68
2022/09/07 07:28:00;;;;;;;2.33;1.73;;;22.80;83.10;;;;;;5092854;28;20482;-67
2022/09/07 07:30:27;;;;;;;4.30;2.47;;;22.60;84.30;;;;;;5093327;28;20508;-67
2022/09/07 07:32:54;;;;;;;6.30;2.40;;;22.40;84.40;;;;;;5093472;28;20528;-67
2022/09/07 07:35:22;;;;;;;3.77;2.10;;;22.30;85.20;;;;;;5093472;28;20562;-66
2022/09/07 07:37:52;;;;;;;6.27;1.90;;;22.20;85.40;;;;;;5093349;28;20476;-67
2022/09/07 07:40:19;;;;;;;4.07;2.23;;;22.10;86.20;;;;;;5096674;28;21058;-67
2022/09/07 07:42:46;;;;;;;2.80;2.20;;;22.00;86.70;;;;;;5097396;28;20476;-67
2022/09/07 07:45:14;;;;;;;2.40;1.90;;;21.90;87.40;;;;;;5097098;28;21042;-67
2022/09/07 07:47:41;;;;;;;4.30;2.40;;;21.90;86.60;;;;;;5097507;28;20467;-67
2022/09/07 07:50:08;;;;;;;5.27;2.50;;;21.90;87.60;;;;;;5096892;28;21043;-67
2022/09/07 07:52:37;;;;;;;3.97;2.47;;;21.80;88.20;;;;;;5097405;28;20436;-66
2022/09/07 07:55:06;;;;;;;2.90;2.30;;;21.70;89.10;;;;;;5097368;28;20468;-66
2022/09/07 07:57:33;;;;;;;2.07;1.87;;;21.80;89.50;;;;;;5096716;28;20438;-66
2022/09/07 08:00:00;;;;;;;6.40;2.40;;;21.80;89.70;;;;;;5097157;28;20463;-67
2022/09/07 08:02:27;;;;;;;2.43;2.03;;;21.90;89.70;;;;;;5097221;28;20428;-67
2022/09/07 08:04:54;;;;;;;3.50;2.10;;;22.00;89.50;;;;;;5097166;28;20428;-67
2022/09/07 08:07:21;;;;;;;3.00;2.40;;;22.00;88.80;;;;;;5097140;28;20861;-67
2022/09/07 08:09:48;;;;;;;2.57;2.20;;;22.10;89.20;;;;;;5097054;28;20839;-68
2022/09/07 08:12:18;;;;;;;3.00;2.70;;;22.20;89.40;;;;;;5096706;28;20467;-68
2022/09/07 08:14:46;;;;;;;4.60;2.47;;;22.30;89.20;;;;;;5096877;28;20434;-68
2022/09/07 08:17:15;;;;;;;2.47;1.97;;;22.30;89.10;;;;;;5096942;28;20527;-68
2022/09/07 08:19:42;;;;;;;3.30;2.37;;;22.40;89.40;;;;;;5096572;28;20562;-68
2022/09/07 08:22:11;;;;;;;2.10;1.90;;;22.50;88.50;;;;;;5096410;28;20439;-68
2022/09/07 08:24:38;;;;;;;5.47;2.50;;;22.70;88.30;;;;;;5096759;28;20440;-68
2022/09/07 08:27:05;;;;;;;4.57;2.40;;;23.00;88.10;;;;;;5096407;28;20459;-68
2022/09/07 08:29:33;;;;;;;2.20;1.93;;;23.20;87.50;;;;;;5096737;28;20471;-68
2022/09/07 08:31:59;;;;;;;4.57;2.70;;;23.40;87.70;;;;;;5096696;28;20455;-68
2022/09/07 08:34:26;;;;;;;5.23;2.57;;;23.50;87.30;;;;;;5096442;28;20971;-68
2022/09/07 08:36:53;;;;;;;3.70;2.70;;;23.50;85.20;;;;;;5096027;28;20450;-68
2022/09/07 08:39:20;;;;;;;3.40;2.10;;;23.40;82.80;;;;;;5096532;28;20495;-68
2022/09/07 08:42:14;;;;;;;2.97;2.10;;;23.40;84.20;;;;;;5096457;28;20439;-68
2022/09/07 08:44:48;;;;;;;2.00;1.80;;;23.50;85.20;;;;;;5096022;28;20428;-68
2022/09/07 08:47:24;;;;;;;8.53;2.70;;;23.60;84.20;;;;;;5096536;28;20440;-68
2022/09/07 08:49:55;;;;;;;4.87;2.70;;;23.60;84.60;;;;;;5095794;28;20864;-69
2022/09/07 08:52:25;;;;;;;4.50;2.73;;;23.70;84.10;;;;;;5095986;28;20436;-68
2022/09/07 08:54:59;;;;;;;3.40;2.73;;;23.70;83.50;;;;;;5096207;28;20448;-68
2022/09/07 08:57:30;;;;;;;3.03;2.40;;;23.60;83.40;;;;;;5096404;28;20490;-68
2022/09/07 09:00:06;;;;;;;2.60;2.40;;;23.50;83.80;;;;;;5096284;28;20464;-68
2022/09/07 09:02:33;;;;;;;3.13;2.43;;;23.50;84.60;;;;;;5096306;28;20514;-68
2022/09/07 09:05:00;;;;;;;4.60;3.00;;;23.50;85.10;;;;;;5096032;28;20486;-68
2022/09/07 09:07:36;;;;;;;2.50;2.30;;;23.50;85.30;;;;;;5095867;28;20454;-68
2022/09/07 09:10:19;;;;;;;2.43;2.23;;;23.60;85.40;;;;;;5095918;28;20421;-68
2022/09/07 09:12:58;;;;;;;4.10;2.70;;;23.70;84.30;;;;;;5095633;28;20920;-68
2022/09/07 09:15:34;;;;;;;3.47;2.27;;;23.90;83.80;;;;;;5095865;28;20447;-68
2022/09/07 09:18:06;;;;;;;7.50;2.90;;;24.20;81.00;;;;;;5096026;28;20468;-68
2022/09/07 09:20:41;;;;;;;3.83;2.97;;;24.50;80.60;;;;;;5095407;28;21048;-68
2022/09/07 09:23:12;;;;;;;3.13;2.23;;;24.70;80.80;;;;;;5095764;28;20427;-68
2022/09/07 09:25:42;;;;;;;3.80;2.93;;;24.90;79.80;;;;;;5095733;28;20460;-67
2022/09/07 09:28:12;;;;;;;5.63;3.03;;;25.20;78.90;;;;;;5095256;28;20483;-69
2022/09/07 09:30:40;;;;;;;3.00;2.00;;;25.40;78.40;;;;;;5095544;28;20444;-69
2022/09/07 09:33:16;;;;;;;2.43;2.17;;;25.60;75.40;;;;;;5095580;28;20427;-69
2022/09/07 09:35:44;;;;;;;2.70;2.50;;;25.80;74.40;;;;;;5095394;28;20444;-68
2022/09/07 09:38:29;;;;;;;2.87;2.67;;;26.00;74.20;;;;;;5095705;28;20471;-68
2022/09/07 09:40:58;;;;;;;4.23;2.73;;;26.30;71.20;;;;;;5096992;28;20468;-69
2022/09/07 09:43:27;;;;;;;3.57;2.63;;;26.30;71.60;;;;;;5096091;28;20433;-69
2022/09/07 09:45:57;;;;;;;2.90;2.57;;;26.40;71.60;;;;;;5096002;28;20461;-69
2022/09/07 09:48:32;;;;;;;3.23;2.93;;;26.30;71.80;;;;;;5097311;28;20472;-69
2022/09/07 09:51:00;;;;;;;3.00;2.70;;;26.30;72.30;;;;;;5096144;28;20435;-69
2022/09/07 09:53:31;;;;;;;5.40;3.07;;;26.20;71.40;;;;;;5095036;28;20975;-68
2022/09/07 09:56:00;;;;;;;3.70;3.20;;;26.20;72.80;;;;;;5095229;28;20486;-69
2022/09/07 09:58:30;;;;;;;3.73;2.60;;;26.20;71.90;;;;;;5095142;28;20480;-69
2022/09/07 10:01:01;;;;;;;4.23;3.57;;;26.20;71.10;;;;;;5094266;28;20475;-68
2022/09/07 10:03:29;;;;;;;6.80;3.17;;;26.30;70.70;;;;;;5094967;28;20432;-68
2022/09/07 10:05:56;;;;;;;4.73;3.17;;;26.30;72.00;;;;;;5094992;28;20810;-68
2022/09/07 10:08:25;;;;;;;3.57;2.67;;;26.40;69.80;;;;;;5094899;28;20483;-69
2022/09/07 10:10:55;;;;;;;2.30;2.10;;;26.30;69.80;;;;;;5094602;28;20936;-69
2022/09/07 10:13:24;;;;;;;3.57;2.60;;;26.40;70.60;;;;;;5094812;28;20483;-68
2022/09/07 10:15:52;;;;;;;5.10;2.60;;;26.70;70.30;;;;;;5094692;28;20452;-68
2022/09/07 10:18:28;;;;;;;3.10;2.40;;;27.20;65.70;;;;;;5094780;28;20472;-69
2022/09/07 10:21:21;;;;;;;6.20;2.60;;;27.70;66.90;;;;;;5094694;28;20471;-69
2022/09/07 10:23:52;;;;;;;4.10;2.73;;;28.20;63.70;;;;;;5094389;28;20490;-68
2022/09/07 10:26:31;;;;;;;3.50;2.90;;;28.40;59.10;;;;;;5094859;28;20428;-68
2022/09/07 10:29:12;;;;;;;3.60;3.20;;;28.30;59.30;;;;;;5094107;28;20478;-68
2022/09/07 10:31:52;;;;;;;4.00;3.70;;;28.20;60.30;;;;;;5094642;28;20507;-68
2022/09/07 10:34:29;;;;;;;4.13;3.60;;;28.00;59.40;;;;;;5094368;28;20448;-68
2022/09/07 10:37:02;;;;;;;4.30;3.50;;;28.20;60.30;;;;;;5094365;28;20442;-68
2022/09/07 10:39:34;;;;;;;6.57;3.73;;;28.60;57.50;;;;;;5094301;28;20499;-68
2022/09/07 10:42:09;;;;;;;4.17;3.70;;;29.30;57.70;;;;;;5094477;28;20472;-68
2022/09/07 10:44:46;;;;;;;10.00;3.53;;;29.70;54.70;;;;;;5094341;28;20436;-68
2022/09/07 10:47:25;;;;;;;3.97;2.60;;;29.60;53.50;;;;;;5093912;28;20918;-68
2022/09/07 10:50:00;;;;;;;4.30;3.47;;;29.50;54.20;;;;;;5093812;28;20451;-68
2022/09/07 10:52:34;;;;;;;5.17;2.60;;;30.00;53.40;;;;;;5093995;28;20896;-68
2022/09/07 10:55:11;;;;;;;3.27;2.70;;;30.60;51.00;;;;;;5094306;28;20444;-69
2022/09/07 10:57:51;;;;;;;6.53;3.57;;;31.40;50.40;;;;;;5094058;28;20505;-68
2022/09/07 11:00:20;;;;;;;3.77;3.00;;;31.80;48.80;;;;;;5094006;28;20464;-69
2022/09/07 11:02:59;;;;;;;5.33;3.70;;;32.30;47.90;;;;;;5094015;28;20455;-69
2022/09/07 11:05:34;;;;;;;5.90;4.07;;;32.50;45.50;;;;;;5094211;28;20470;-69
2022/09/07 11:08:14;;;;;;;10.50;3.73;;;32.80;45.00;;;;;;5093759;28;20558;-69
2022/09/07 11:10:48;;;;;;;3.87;3.40;;;32.80;43.60;;;;;;5094008;28;20428;-69
2022/09/07 11:13:21;;;;;;;5.90;3.20;;;32.60;44.30;;;;;;5093783;28;20806;-69
2022/09/07 11:15:53;;;;;;;3.77;3.47;;;32.70;45.60;;;;;;5094013;28;20848;-69
2022/09/07 11:18:25;;;;;;;4.83;3.27;;;32.70;43.80;;;;;;5094120;28;20459;-69
2022/09/07 11:20:57;;;;;;;6.70;4.40;;;32.50;45.00;;;;;;5093793;28;20467;-69
2022/09/07 11:23:29;;;;;;;4.63;3.40;;;32.60;43.30;;;;;;5093959;28;20435;-69
2022/09/07 11:26:04;;;;;;;5.40;2.77;;;32.50;43.10;;;;;;5094625;28;20443;-69
2022/09/07 11:28:42;;;;;;;4.77;3.13;;;32.40;43.40;;;;;;5095625;28;20489;-69
2022/09/07 11:31:17;;;;;;;3.30;3.00;;;32.70;42.50;;;;;;5094262;28;20432;-69
2022/09/07 11:33:53;;;;;;;4.63;3.37;;;33.10;42.10;;;;;;5094057;28;20430;-68
2022/09/07 11:36:23;;;;;;;4.67;3.37;;;33.60;41.60;;;;;;5094386;28;20493;-68
2022/09/07 11:38:54;;;;;;;5.30;3.50;;;33.80;38.50;;;;;;5093496;28;20482;-68
2022/09/07 11:41:24;;;;;;;5.23;3.10;;;33.90;39.90;;;;;;5093535;28;20467;-68
2022/09/07 11:44:02;;;;;;;3.30;2.50;;;34.20;38.00;;;;;;5093689;28;20432;-69
2022/09/07 11:46:35;;;;;;;5.17;2.30;;;34.70;37.60;;;;;;5093617;28;20428;-68
2022/09/07 11:49:05;;;;;;;4.60;2.23;;;34.90;36.00;;;;;;5093786;28;20467;-68
2022/09/07 11:51:41;;;;;;;4.17;2.20;;;35.00;37.10;;;;;;5093570;28;20459;-68
2022/09/07 11:54:37;;;;;;;3.00;2.60;;;35.40;35.20;;;;;;5093326;28;20431;-68
2022/09/07 11:57:20;;;;;;;3.27;2.10;;;35.20;35.10;;;;;;5093517;28;20432;-68
2022/09/07 11:59:57;;;;;;;2.77;1.70;;;35.10;36.30;;;;;;5093417;28;20427;-68
2022/09/07 12:02:51;;;;;;;2.73;2.00;;;35.20;35.90;;;;;;5093000;28;20467;-68
2022/09/07 12:05:31;;;;;;;2.03;1.23;;;35.50;34.50;;;;;;5092933;28;20954;-68
2022/09/07 12:08:14;;;;;;;3.03;2.10;;;35.70;33.60;;;;;;5093617;28;20463;-68
2022/09/07 12:11:04;;;;;;;2.20;1.43;;;35.90;33.00;;;;;;5093225;28;20467;-68
2022/09/07 12:13:50;;;;;;;4.03;1.50;;;36.10;33.10;;;;;;5093438;28;20419;-68
2022/09/07 12:16:22;;;;;;;3.07;1.63;;;36.20;32.70;;;;;;5093213;28;20434;-68
2022/09/07 12:19:06;;;;;;;4.10;1.70;;;36.50;31.60;;;;;;5094480;28;21002;-64
2022/09/07 12:21:41;;;;;;;3.57;1.70;;;36.70;30.90;;;;;;5095592;28;20432;-65
2022/09/07 12:24:43;;;;;;;3.50;1.60;;;37.00;30.20;;;;;;5095677;28;20792;-65
2022/09/07 12:27:26;;;;;;;4.40;1.57;;;37.30;30.40;;;;;;5098839;28;20213;-65
2022/09/07 12:30:43;;;;;;;3.50;1.20;;;37.70;29.80;;;;;;5099116;28;20665;-65
2022/09/07 12:33:20;;;;;;;2.10;1.30;;;38.30;28.40;;;;;;5098729;28;20197;-65
2022/09/07 12:35:47;;;;;;;1.77;1.13;;;38.30;28.20;;;;;;5099048;28;20196;-65
2022/09/07 12:38:53;;;;;;;2.93;1.37;;;38.10;27.90;;;;;;5099484;28;20635;-65
2022/09/07 12:41:39;;;;;;;3.33;1.43;;;38.00;27.70;;;;;;5072096;28;20193;-65
2022/09/07 12:44:09;;;;;;;3.30;1.40;;;37.70;27.70;;;;;;5098842;28;20217;-64
2022/09/07 12:47:01;;;;;;;4.03;1.30;;;37.60;28.20;;;;;;5098397;28;20188;-64
2022/09/07 12:49:52;;;;;;;1.80;1.17;;;37.60;27.80;;;;;;5095697;28;20607;-65
2022/09/07 12:52:44;;;;;;;6.78;1.48;;;37.90;28.00;;;;;;5091937;28;20225;-64
2022/09/07 12:55:24;;;;;;;2.63;1.20;;;38.50;26.70;;;;;;5090237;28;20220;-64
2022/09/07 12:57:58;;;;;;;3.00;1.50;;;39.10;26.60;;;;;;5098591;28;20582;-65
2022/09/07 13:00:37;;;;;;;1.67;0.90;;;39.60;25.80;;;;;;5098501;28;20200;-65
2022/09/07 13:03:23;;;;;;;4.32;1.42;;;40.00;25.10;;;;;;5098663;28;20192;-65
2022/09/07 13:06:02;;;;;;;5.53;1.48;;;40.40;24.90;;;;;;5097800;28;20186;-65
2022/09/07 13:08:59;;;;;;;2.47;1.10;;;40.90;24.70;;;;;;5097193;28;20228;-64